TAIP08 YCBG-YCBG
Flight info
| Callsign | TAIP08 |
|---|---|
| Flight time | 0h 1m |
| Altitude | 2500 |
| Route | VFR |
| Aircraft | EC35/L-VGD/C |
Departure
| Time | 2026-04-23 06:55 |
|---|---|
| Airport | Cambridge Aerodrome (YCBG) |
Arrival
| Time | 2026-04-23 06:56 |
|---|---|
| Airport | Cambridge Aerodrome (YCBG) |
| Time | Latitude | Longitude | Altitude | Speed | Heading |
|---|---|---|---|---|---|
| 2026-04-23 06:31 | -42.82868 | 147.47662 | 38 ft | 0 kts | 194° |
| 2026-04-23 06:32 | -42.82868 | 147.47661 | 38 ft | 1 kts | 199° |
| 2026-04-23 06:32 | -42.82889 | 147.47659 | 51 ft | 7 kts | 128° |
| 2026-04-23 06:32 | -42.82909 | 147.47734 | 56 ft | 8 kts | 108° |
| 2026-04-23 06:32 | -42.82875 | 147.47781 | 42 ft | 14 kts | 355° |
| 2026-04-23 06:33 | -42.82687 | 147.47701 | 82 ft | 44 kts | 326° |
| 2026-04-23 06:33 | -42.82298 | 147.47474 | 195 ft | 75 kts | 330° |
| 2026-04-23 06:33 | -42.81740 | 147.47170 | 239 ft | 96 kts | 335° |
| 2026-04-23 06:33 | -42.81060 | 147.46849 | 243 ft | 110 kts | 340° |
| 2026-04-23 06:34 | -42.80376 | 147.46586 | 386 ft | 94 kts | 343° |
| 2026-04-23 06:34 | -42.79762 | 147.46345 | 472 ft | 92 kts | 343° |
| 2026-04-23 06:34 | -42.79143 | 147.46102 | 456 ft | 93 kts | 343° |
| 2026-04-23 06:34 | -42.78523 | 147.45857 | 452 ft | 91 kts | 343° |
| 2026-04-23 06:35 | -42.77920 | 147.45747 | 452 ft | 82 kts | 8° |
| 2026-04-23 06:35 | -42.77412 | 147.45833 | 446 ft | 66 kts | 10° |
| 2026-04-23 06:35 | -42.76952 | 147.45930 | 441 ft | 68 kts | 11° |
| 2026-04-23 06:35 | -42.76500 | 147.46077 | 438 ft | 65 kts | 36° |
| 2026-04-23 06:36 | -42.76294 | 147.46565 | 440 ft | 59 kts | 99° |
| 2026-04-23 06:36 | -42.76487 | 147.46975 | 443 ft | 51 kts | 159° |
| 2026-04-23 06:36 | -42.76815 | 147.47179 | 433 ft | 60 kts | 160° |
| 2026-04-23 06:36 | -42.77267 | 147.47251 | 443 ft | 67 kts | 184° |
| 2026-04-23 06:37 | -42.77716 | 147.47193 | 440 ft | 65 kts | 185° |
| 2026-04-23 06:37 | -42.78251 | 147.47115 | 444 ft | 82 kts | 184° |
| 2026-04-23 06:37 | -42.78797 | 147.47149 | 441 ft | 79 kts | 158° |
| 2026-04-23 06:37 | -42.79230 | 147.47627 | 442 ft | 81 kts | 137° |
| 2026-04-23 06:38 | -42.79619 | 147.48186 | 444 ft | 83 kts | 136° |
| 2026-04-23 06:38 | -42.79997 | 147.48753 | 443 ft | 80 kts | 136° |
| 2026-04-23 06:38 | -42.80295 | 147.49401 | 435 ft | 83 kts | 118° |
| 2026-04-23 06:38 | -42.80512 | 147.50131 | 441 ft | 83 kts | 117° |
| 2026-04-23 06:39 | -42.80719 | 147.50840 | 442 ft | 83 kts | 117° |
| 2026-04-23 06:39 | -42.80933 | 147.51575 | 442 ft | 83 kts | 117° |
| 2026-04-23 06:39 | -42.81144 | 147.52299 | 442 ft | 83 kts | 117° |
| 2026-04-23 06:39 | -42.81357 | 147.53031 | 442 ft | 83 kts | 117° |
| 2026-04-23 06:40 | -42.81570 | 147.53763 | 431 ft | 83 kts | 117° |
| 2026-04-23 06:40 | -42.81784 | 147.54498 | 439 ft | 83 kts | 117° |
| 2026-04-23 06:40 | -42.81998 | 147.55230 | 442 ft | 83 kts | 117° |
| 2026-04-23 06:40 | -42.82211 | 147.55963 | 442 ft | 83 kts | 117° |
| 2026-04-23 06:41 | -42.82347 | 147.56739 | 442 ft | 85 kts | 106° |
| 2026-04-23 06:41 | -42.82451 | 147.57525 | 440 ft | 86 kts | 107° |
| 2026-04-23 06:41 | -42.82556 | 147.58354 | 446 ft | 88 kts | 105° |
| 2026-04-23 06:41 | -42.82669 | 147.59130 | 442 ft | 82 kts | 115° |
| 2026-04-23 06:42 | -42.82972 | 147.59777 | 442 ft | 81 kts | 131° |
| 2026-04-23 06:42 | -42.83303 | 147.60416 | 431 ft | 84 kts | 130° |
| 2026-04-23 06:42 | -42.83753 | 147.60869 | 443 ft | 81 kts | 169° |
| 2026-04-23 06:42 | -42.84305 | 147.60795 | 440 ft | 80 kts | 190° |
| 2026-04-23 06:43 | -42.84784 | 147.60410 | 441 ft | 85 kts | 232° |
| 2026-04-23 06:43 | -42.84872 | 147.59596 | 443 ft | 92 kts | 281° |
| 2026-04-23 06:43 | -42.84650 | 147.58782 | 442 ft | 91 kts | 277° |
| 2026-04-23 06:43 | -42.84543 | 147.57941 | 441 ft | 89 kts | 275° |
| 2026-04-23 06:44 | -42.84465 | 147.57105 | 436 ft | 91 kts | 274° |
| 2026-04-23 06:44 | -42.84485 | 147.56258 | 442 ft | 90 kts | 245° |
| 2026-04-23 06:44 | -42.84817 | 147.55585 | 441 ft | 85 kts | 227° |
| 2026-04-23 06:44 | -42.85194 | 147.54961 | 441 ft | 84 kts | 226° |
| 2026-04-23 06:45 | -42.85484 | 147.54255 | 439 ft | 90 kts | 255° |
| 2026-04-23 06:45 | -42.85307 | 147.53443 | 442 ft | 94 kts | 305° |
| 2026-04-23 06:45 | -42.84832 | 147.52817 | 442 ft | 96 kts | 316° |
| 2026-04-23 06:45 | -42.84347 | 147.52210 | 441 ft | 94 kts | 315° |
| 2026-04-23 06:46 | -42.83879 | 147.51619 | 436 ft | 92 kts | 315° |
| 2026-04-23 06:46 | -42.83430 | 147.50979 | 444 ft | 94 kts | 311° |
| 2026-04-23 06:46 | -42.82979 | 147.50327 | 440 ft | 95 kts | 310° |
| 2026-04-23 06:46 | -42.82465 | 147.49799 | 441 ft | 95 kts | 343° |
| 2026-04-23 06:47 | -42.81832 | 147.49891 | 441 ft | 94 kts | 34° |
| 2026-04-23 06:47 | -42.81328 | 147.50436 | 439 ft | 93 kts | 46° |
| 2026-04-23 06:47 | -42.81057 | 147.51188 | 444 ft | 89 kts | 93° |
| 2026-04-23 06:47 | -42.81267 | 147.51908 | 444 ft | 80 kts | 132° |
| 2026-04-23 06:48 | -42.81633 | 147.52497 | 439 ft | 83 kts | 135° |
| 2026-04-23 06:48 | -42.82017 | 147.53078 | 433 ft | 83 kts | 135° |
| 2026-04-23 06:48 | -42.82276 | 147.53461 | 443 ft | 82 kts | 136° |
| 2026-04-23 06:48 | -42.82783 | 147.54218 | 438 ft | 82 kts | 136° |
| 2026-04-23 06:49 | -42.83181 | 147.54797 | 445 ft | 83 kts | 134° |
| 2026-04-23 06:49 | -42.83445 | 147.55161 | 445 ft | 79 kts | 140° |
| 2026-04-23 06:49 | -42.83961 | 147.55318 | 434 ft | 82 kts | 192° |
| 2026-04-23 06:49 | -42.84426 | 147.54836 | 445 ft | 84 kts | 222° |
| 2026-04-23 06:50 | -42.84818 | 147.54236 | 433 ft | 85 kts | 224° |
| 2026-04-23 06:50 | -42.85156 | 147.53579 | 439 ft | 89 kts | 247° |
| 2026-04-23 06:50 | -42.85062 | 147.52742 | 437 ft | 94 kts | 297° |
| 2026-04-23 06:50 | -42.84604 | 147.52096 | 444 ft | 95 kts | 316° |
| 2026-04-23 06:51 | -42.84120 | 147.51491 | 440 ft | 93 kts | 315° |
| 2026-04-23 06:51 | -42.83632 | 147.50904 | 443 ft | 93 kts | 316° |
| 2026-04-23 06:51 | -42.83164 | 147.50289 | 442 ft | 94 kts | 312° |
| 2026-04-23 06:51 | -42.82706 | 147.49714 | 447 ft | 81 kts | 328° |
| 2026-04-23 06:52 | -42.82232 | 147.49676 | 442 ft | 61 kts | 33° |
| 2026-04-23 06:52 | -42.81891 | 147.50038 | 444 ft | 63 kts | 51° |
| 2026-04-23 06:52 | -42.81608 | 147.50477 | 437 ft | 61 kts | 66° |
| 2026-04-23 06:52 | -42.81609 | 147.50989 | 442 ft | 54 kts | 128° |
| 2026-04-23 06:53 | -42.81841 | 147.51383 | 437 ft | 53 kts | 136° |
| 2026-04-23 06:53 | -42.82082 | 147.51754 | 431 ft | 53 kts | 137° |
| 2026-04-23 06:53 | -42.82340 | 147.52134 | 445 ft | 55 kts | 136° |
| 2026-04-23 06:53 | -42.82597 | 147.52502 | 441 ft | 53 kts | 137° |
| 2026-04-23 06:54 | -42.82844 | 147.52853 | 430 ft | 50 kts | 137° |
| 2026-04-23 06:54 | -42.83082 | 147.53208 | 434 ft | 52 kts | 140° |
| 2026-04-23 06:54 | -42.83343 | 147.53559 | 429 ft | 53 kts | 139° |
| 2026-04-23 06:54 | -42.83616 | 147.53911 | 443 ft | 54 kts | 139° |
| 2026-04-23 06:55 | -42.83900 | 147.54226 | 440 ft | 52 kts | 152° |
| 2026-04-23 06:55 | -42.84236 | 147.54139 | 524 ft | 55 kts | 220° |
| 2026-04-23 06:55 | -42.84487 | 147.53726 | 736 ft | 58 kts | 224° |
| 2026-04-23 06:55 | -42.84655 | 147.53248 | 541 ft | 59 kts | 267° |
| 2026-04-23 06:56 | -42.84492 | 147.52709 | 313 ft | 65 kts | 296° |
| 2026-04-23 06:56 | -42.84261 | 147.52144 | 205 ft | 75 kts | 297° |
| 2026-04-23 06:56 | -42.83917 | 147.51598 | 67 ft | 71 kts | 315° |
| 2026-04-23 06:56 | -42.83620 | 147.51202 | 45 ft | 48 kts | 314° |
| 2026-04-23 06:57 | -42.83472 | 147.50997 | 43 ft | 10 kts | 315° |
| 2026-04-23 06:57 | -42.83458 | 147.50984 | 105 ft | 9 kts | 310° |
| 2026-04-23 06:57 | -42.83188 | 147.50685 | 197 ft | 87 kts | 305° |
| 2026-04-23 06:57 | -42.82747 | 147.50137 | 565 ft | 94 kts | 316° |
| 2026-04-23 06:58 | -42.82135 | 147.49549 | 637 ft | 118 kts | 321° |
| 2026-04-23 06:58 | -42.81497 | 147.48956 | 736 ft | 101 kts | 322° |
| 2026-04-23 06:58 | -42.80912 | 147.48661 | 713 ft | 82 kts | 6° |
| 2026-04-23 06:58 | -42.80438 | 147.49001 | 699 ft | 79 kts | 46° |
| 2026-04-23 06:59 | -42.80036 | 147.49515 | 697 ft | 80 kts | 50° |
| 2026-04-23 06:59 | -42.79687 | 147.50078 | 686 ft | 76 kts | 75° |
| 2026-04-23 06:59 | -42.79754 | 147.50732 | 691 ft | 69 kts | 133° |
| 2026-04-23 06:59 | -42.80077 | 147.51204 | 686 ft | 67 kts | 141° |
| 2026-04-23 07:00 | -42.80414 | 147.51648 | 689 ft | 67 kts | 140° |
| 2026-04-23 07:00 | -42.80749 | 147.52066 | 693 ft | 66 kts | 141° |
| 2026-04-23 07:00 | -42.81087 | 147.52510 | 686 ft | 68 kts | 141° |
| 2026-04-23 07:00 | -42.81443 | 147.52971 | 681 ft | 82 kts | 140° |
| 2026-04-23 07:01 | -42.81877 | 147.53491 | 694 ft | 82 kts | 141° |
| 2026-04-23 07:01 | -42.82301 | 147.54012 | 690 ft | 83 kts | 141° |
| 2026-04-23 07:01 | -42.82728 | 147.54533 | 690 ft | 82 kts | 141° |
| 2026-04-23 07:01 | -42.83154 | 147.55053 | 680 ft | 89 kts | 142° |
| 2026-04-23 07:02 | -42.83678 | 147.55417 | 694 ft | 80 kts | 176° |
| 2026-04-23 07:02 | -42.84180 | 147.55098 | 616 ft | 87 kts | 223° |
| 2026-04-23 07:02 | -42.84542 | 147.54460 | 462 ft | 83 kts | 231° |
| 2026-04-23 07:02 | -42.84873 | 147.53848 | 477 ft | 72 kts | 227° |
| 2026-04-23 07:03 | -42.85091 | 147.53321 | 483 ft | 64 kts | 265° |
| 2026-04-23 07:03 | -42.84871 | 147.52771 | 489 ft | 70 kts | 316° |
| 2026-04-23 07:03 | -42.84515 | 147.52323 | 491 ft | 70 kts | 315° |
| 2026-04-23 07:03 | -42.84159 | 147.51905 | 492 ft | 62 kts | 316° |
| 2026-04-23 07:04 | -42.83885 | 147.51528 | 492 ft | 53 kts | 310° |
| 2026-04-23 07:04 | -42.83630 | 147.51147 | 495 ft | 55 kts | 309° |
| 2026-04-23 07:04 | -42.83370 | 147.50766 | 492 ft | 55 kts | 309° |
| 2026-04-23 07:04 | -42.83093 | 147.50388 | 491 ft | 56 kts | 310° |
| 2026-04-23 07:05 | -42.82821 | 147.50018 | 489 ft | 56 kts | 310° |
| 2026-04-23 07:05 | -42.82557 | 147.49628 | 491 ft | 55 kts | 310° |
| 2026-04-23 07:05 | -42.82214 | 147.49422 | 484 ft | 55 kts | 0° |
| 2026-04-23 07:05 | -42.81875 | 147.49625 | 485 ft | 53 kts | 57° |
| 2026-04-23 07:06 | -42.81783 | 147.50050 | 492 ft | 46 kts | 110° |
| 2026-04-23 07:06 | -42.81938 | 147.50413 | 490 ft | 44 kts | 133° |
| 2026-04-23 07:06 | -42.82133 | 147.50734 | 491 ft | 44 kts | 134° |
| 2026-04-23 07:06 | -42.82324 | 147.51043 | 489 ft | 41 kts | 134° |
| 2026-04-23 07:07 | -42.82500 | 147.51348 | 487 ft | 41 kts | 134° |
| 2026-04-23 07:07 | -42.82704 | 147.51620 | 490 ft | 42 kts | 161° |
| 2026-04-23 07:07 | -42.82981 | 147.51543 | 489 ft | 45 kts | 214° |
| 2026-04-23 07:07 | -42.83202 | 147.51209 | 491 ft | 47 kts | 216° |
| 2026-04-23 07:08 | -42.83424 | 147.50914 | 486 ft | 44 kts | 215° |
| 2026-04-23 07:08 | -42.83663 | 147.50637 | 646 ft | 48 kts | 213° |
| 2026-04-23 07:08 | -42.83963 | 147.50264 | 691 ft | 66 kts | 222° |
| 2026-04-23 07:08 | -42.84281 | 147.49733 | 696 ft | 74 kts | 225° |
| 2026-04-23 07:09 | -42.84419 | 147.49158 | 640 ft | 56 kts | 306° |
| 2026-04-23 07:09 | -42.84168 | 147.48987 | 512 ft | 42 kts | 66° |
| 2026-04-23 07:09 | -42.84046 | 147.49338 | 329 ft | 45 kts | 78° |
| 2026-04-23 07:09 | -42.83965 | 147.49767 | 200 ft | 47 kts | 77° |
| 2026-04-23 07:10 | -42.83912 | 147.50039 | 39 ft | 20 kts | 66° |
| 2026-04-23 07:10 | -42.83904 | 147.50085 | 33 ft | 2 kts | 62° |
| 2026-04-23 07:10 | -42.83945 | 147.50009 | 111 ft | 39 kts | 214° |
| 2026-04-23 07:10 | -42.84170 | 147.49445 | 100 ft | 90 kts | 242° |
| 2026-04-23 07:11 | -42.84405 | 147.48596 | 168 ft | 95 kts | 245° |
| 2026-04-23 07:11 | -42.84618 | 147.47826 | 407 ft | 81 kts | 244° |
| 2026-04-23 07:11 | -42.84820 | 147.47104 | 530 ft | 82 kts | 243° |
| 2026-04-23 07:12 | -42.84541 | 147.45650 | 933 ft | 91 kts | 318° |
| 2026-04-23 07:12 | -42.84059 | 147.45095 | 1180 ft | 90 kts | 320° |
| 2026-04-23 07:12 | -42.83571 | 147.44551 | 1433 ft | 91 kts | 324° |
| 2026-04-23 07:12 | -42.83074 | 147.44042 | 1608 ft | 89 kts | 323° |
| 2026-04-23 07:13 | -42.82572 | 147.43567 | 1734 ft | 88 kts | 334° |
| 2026-04-23 07:13 | -42.82011 | 147.43248 | 1862 ft | 87 kts | 340° |
| 2026-04-23 07:13 | -42.81458 | 147.42915 | 1988 ft | 88 kts | 334° |
| 2026-04-23 07:13 | -42.80919 | 147.42528 | 2231 ft | 87 kts | 333° |
| 2026-04-23 07:14 | -42.80390 | 147.42153 | 2250 ft | 85 kts | 333° |
| 2026-04-23 07:14 | -42.79776 | 147.41730 | 2211 ft | 115 kts | 334° |
| 2026-04-23 07:14 | -42.79010 | 147.41231 | 2237 ft | 120 kts | 334° |
| 2026-04-23 07:14 | -42.78270 | 147.40732 | 2221 ft | 120 kts | 334° |
| 2026-04-23 07:15 | -42.77526 | 147.40215 | 2222 ft | 120 kts | 334° |
| 2026-04-23 07:15 | -42.76785 | 147.39699 | 2221 ft | 120 kts | 334° |
| 2026-04-23 07:15 | -42.76041 | 147.39184 | 2222 ft | 120 kts | 335° |
| 2026-04-23 07:15 | -42.75296 | 147.38671 | 2223 ft | 120 kts | 335° |
| 2026-04-23 07:16 | -42.74549 | 147.38166 | 2226 ft | 120 kts | 335° |
| 2026-04-23 07:16 | -42.73788 | 147.37717 | 2222 ft | 119 kts | 347° |
| 2026-04-23 07:16 | -42.72979 | 147.37842 | 2226 ft | 118 kts | 26° |
| 2026-04-23 07:16 | -42.72399 | 147.38604 | 2223 ft | 117 kts | 58° |
| 2026-04-23 07:17 | -42.71894 | 147.39465 | 2220 ft | 118 kts | 38° |
| 2026-04-23 07:17 | -42.71139 | 147.39889 | 2223 ft | 118 kts | 16° |
| 2026-04-23 07:17 | -42.70409 | 147.40372 | 2225 ft | 118 kts | 43° |
| 2026-04-23 07:17 | -42.70014 | 147.41329 | 2225 ft | 117 kts | 71° |
| 2026-04-23 07:18 | -42.69788 | 147.42395 | 2224 ft | 118 kts | 75° |
| 2026-04-23 07:18 | -42.69579 | 147.43477 | 2220 ft | 120 kts | 75° |
| 2026-04-23 07:18 | -42.69384 | 147.44587 | 2225 ft | 120 kts | 75° |
| 2026-04-23 07:18 | -42.69199 | 147.45679 | 2224 ft | 120 kts | 76° |
| 2026-04-23 07:19 | -42.69007 | 147.46784 | 2221 ft | 120 kts | 75° |
| 2026-04-23 07:19 | -42.68823 | 147.47821 | 1889 ft | 101 kts | 76° |
| 2026-04-23 07:19 | -42.68638 | 147.48505 | 1467 ft | 62 kts | 83° |
| 2026-04-23 07:19 | -42.68670 | 147.48966 | 1074 ft | 24 kts | 186° |
| 2026-04-23 07:20 | -42.68752 | 147.49021 | 997 ft | 7 kts | 158° |
| 2026-04-23 07:20 | -42.68779 | 147.49041 | 996 ft | 0 kts | 154° |
| 2026-04-23 07:24 | -42.68785 | 147.49042 | 1004 ft | 4 kts | 160° |
| 2026-04-23 07:24 | -42.68798 | 147.49026 | 1066 ft | 5 kts | 162° |
| 2026-04-23 07:24 | -42.68852 | 147.48989 | 1152 ft | 13 kts | 163° |
| 2026-04-23 07:24 | -42.68964 | 147.48922 | 1294 ft | 27 kts | 176° |
| 2026-04-23 07:25 | -42.69273 | 147.48845 | 1493 ft | 62 kts | 178° |
| 2026-04-23 07:25 | -42.69725 | 147.48785 | 1724 ft | 67 kts | 180° |
| 2026-04-23 07:25 | -42.70279 | 147.48774 | 1946 ft | 85 kts | 178° |
| 2026-04-23 07:25 | -42.70869 | 147.48790 | 2078 ft | 85 kts | 177° |
| 2026-04-23 07:26 | -42.71451 | 147.48825 | 2131 ft | 83 kts | 177° |
| 2026-04-23 07:26 | -42.72023 | 147.48797 | 2150 ft | 83 kts | 195° |
| 2026-04-23 07:26 | -42.72554 | 147.48507 | 2158 ft | 82 kts | 201° |
| 2026-04-23 07:26 | -42.73075 | 147.48189 | 2166 ft | 84 kts | 206° |
| 2026-04-23 07:27 | -42.73402 | 147.47560 | 2172 ft | 84 kts | 261° |
| 2026-04-23 07:27 | -42.73233 | 147.46839 | 2165 ft | 82 kts | 317° |
| 2026-04-23 07:27 | -42.72831 | 147.46301 | 2172 ft | 83 kts | 297° |
| 2026-04-23 07:27 | -42.72840 | 147.45539 | 2171 ft | 84 kts | 244° |
| 2026-04-23 07:28 | -42.73326 | 147.45002 | 2107 ft | 106 kts | 199° |
| 2026-04-23 07:28 | -42.74030 | 147.44657 | 1850 ft | 105 kts | 195° |
| 2026-04-23 07:28 | -42.74716 | 147.44374 | 1565 ft | 102 kts | 194° |
| 2026-04-23 07:28 | -42.75463 | 147.44070 | 1271 ft | 122 kts | 194° |
| 2026-04-23 07:29 | -42.76260 | 147.43741 | 1101 ft | 118 kts | 195° |
| 2026-04-23 07:29 | -42.77042 | 147.43422 | 1025 ft | 116 kts | 194° |
| 2026-04-23 07:29 | -42.77816 | 147.43100 | 993 ft | 118 kts | 195° |
| 2026-04-23 07:29 | -42.78592 | 147.42781 | 980 ft | 117 kts | 193° |
| 2026-04-23 07:30 | -42.79388 | 147.42814 | 978 ft | 115 kts | 161° |
| 2026-04-23 07:30 | -42.80089 | 147.43348 | 974 ft | 116 kts | 148° |
| 2026-04-23 07:30 | -42.80759 | 147.43964 | 980 ft | 113 kts | 146° |
| 2026-04-23 07:30 | -42.81354 | 147.44447 | 987 ft | 86 kts | 161° |
| 2026-04-23 07:31 | -42.81839 | 147.44711 | 980 ft | 65 kts | 162° |
| 2026-04-23 07:31 | -42.82201 | 147.44900 | 974 ft | 48 kts | 162° |
| 2026-04-23 07:31 | -42.82469 | 147.45043 | 971 ft | 37 kts | 162° |
| 2026-04-23 07:31 | -42.82715 | 147.45158 | 970 ft | 37 kts | 163° |
| 2026-04-23 07:32 | -42.82928 | 147.45289 | 970 ft | 30 kts | 148° |
| 2026-04-23 07:32 | -42.83046 | 147.45527 | 909 ft | 32 kts | 106° |
| 2026-04-23 07:32 | -42.83102 | 147.45823 | 605 ft | 32 kts | 105° |
| 2026-04-23 07:32 | -42.83151 | 147.46195 | 555 ft | 54 kts | 106° |
| 2026-04-23 07:33 | -42.83256 | 147.46842 | 529 ft | 86 kts | 106° |
| 2026-04-23 07:33 | -42.83411 | 147.47698 | 533 ft | 92 kts | 105° |
| 2026-04-23 07:33 | -42.83488 | 147.48549 | 434 ft | 91 kts | 83° |
| 2026-04-23 07:33 | -42.83306 | 147.49018 | 378 ft | 80 kts | 47° |
| 2026-04-23 07:34 | -42.82685 | 147.49089 | 304 ft | 70 kts | 324° |
| 2026-04-23 07:34 | -42.82433 | 147.48823 | 294 ft | 69 kts | 319° |
| 2026-04-23 07:34 | -42.82060 | 147.48421 | 282 ft | 68 kts | 318° |
| 2026-04-23 07:34 | -42.81682 | 147.48029 | 276 ft | 68 kts | 319° |
| 2026-04-23 07:35 | -42.81505 | 147.47464 | 274 ft | 64 kts | 254° |
| 2026-04-23 07:35 | -42.81714 | 147.46985 | 276 ft | 55 kts | 225° |
| 2026-04-23 07:35 | -42.81985 | 147.46717 | 271 ft | 48 kts | 185° |
| 2026-04-23 07:35 | -42.82265 | 147.46879 | 274 ft | 41 kts | 140° |
| 2026-04-23 07:36 | -42.82421 | 147.47139 | 269 ft | 30 kts | 139° |
| 2026-04-23 07:36 | -42.82547 | 147.47362 | 268 ft | 30 kts | 139° |
| 2026-04-23 07:36 | -42.82701 | 147.47568 | 252 ft | 26 kts | 141° |
| 2026-04-23 07:36 | -42.82806 | 147.47655 | 110 ft | 10 kts | 165° |
| 2026-04-23 07:37 | -42.82854 | 147.47663 | 48 ft | 0 kts | 197° |
| 2026-04-23 07:37 | -42.82861 | 147.47659 | 36 ft | 0 kts | 186° |
| 2026-04-23 07:54 | -42.82864 | 147.47649 | 46 ft | 2 kts | 150° |
| 2026-04-23 07:54 | -42.82887 | 147.47665 | 57 ft | 7 kts | 71° |
| 2026-04-23 07:54 | -42.82889 | 147.47748 | 71 ft | 13 kts | 51° |
| 2026-04-23 07:54 | -42.82891 | 147.47923 | 117 ft | 21 kts | 103° |
| 2026-04-23 07:55 | -42.82964 | 147.48141 | 249 ft | 30 kts | 107° |
| 2026-04-23 07:55 | -42.83098 | 147.48417 | 415 ft | 40 kts | 135° |
| 2026-04-23 07:55 | -42.83463 | 147.48488 | 661 ft | 76 kts | 192° |
| 2026-04-23 07:55 | -42.84016 | 147.48300 | 883 ft | 80 kts | 189° |
| 2026-04-23 07:56 | -42.84557 | 147.48177 | 955 ft | 80 kts | 185° |
| 2026-04-23 07:56 | -42.85119 | 147.48098 | 991 ft | 81 kts | 184° |
| 2026-04-23 07:56 | -42.85678 | 147.48024 | 1005 ft | 80 kts | 184° |
| 2026-04-23 07:56 | -42.86234 | 147.47950 | 1004 ft | 84 kts | 185° |
| 2026-04-23 07:57 | -42.86834 | 147.47876 | 1019 ft | 86 kts | 184° |
| 2026-04-23 07:57 | -42.87420 | 147.47807 | 1018 ft | 84 kts | 184° |
| 2026-04-23 07:57 | -42.88003 | 147.47738 | 1020 ft | 83 kts | 184° |
| 2026-04-23 07:57 | -42.88583 | 147.47668 | 1020 ft | 84 kts | 183° |
| 2026-04-23 07:58 | -42.89173 | 147.47596 | 1040 ft | 86 kts | 184° |
| 2026-04-23 07:58 | -42.89767 | 147.47525 | 1037 ft | 85 kts | 184° |
| 2026-04-23 07:58 | -42.90346 | 147.47454 | 1032 ft | 85 kts | 184° |
| 2026-04-23 07:58 | -42.90933 | 147.47390 | 1025 ft | 86 kts | 184° |
| 2026-04-23 07:59 | -42.91530 | 147.47325 | 1025 ft | 86 kts | 184° |
| 2026-04-23 07:59 | -42.92126 | 147.47256 | 1025 ft | 85 kts | 184° |
| 2026-04-23 07:59 | -42.92723 | 147.47183 | 1025 ft | 85 kts | 184° |
| 2026-04-23 07:59 | -42.93307 | 147.47109 | 1021 ft | 85 kts | 184° |
| 2026-04-23 08:00 | -42.93895 | 147.47043 | 1023 ft | 84 kts | 183° |
| 2026-04-23 08:00 | -42.94473 | 147.46968 | 1023 ft | 84 kts | 184° |
| 2026-04-23 08:00 | -42.95055 | 147.46894 | 1024 ft | 84 kts | 184° |
| 2026-04-23 08:00 | -42.95634 | 147.46816 | 1027 ft | 85 kts | 183° |
| 2026-04-23 08:01 | -42.96223 | 147.46739 | 1025 ft | 85 kts | 184° |
| 2026-04-23 08:01 | -42.96814 | 147.46663 | 1024 ft | 85 kts | 184° |
| 2026-04-23 08:01 | -42.97405 | 147.46586 | 1023 ft | 85 kts | 184° |
| 2026-04-23 08:01 | -42.97993 | 147.46516 | 1022 ft | 86 kts | 184° |
| 2026-04-23 08:02 | -42.98587 | 147.46447 | 1023 ft | 86 kts | 184° |
| 2026-04-23 08:02 | -42.99177 | 147.46377 | 1024 ft | 84 kts | 184° |
| 2026-04-23 08:02 | -42.99759 | 147.46304 | 1022 ft | 85 kts | 184° |
| 2026-04-23 08:02 | -43.00353 | 147.46227 | 1017 ft | 89 kts | 184° |
| 2026-04-23 08:03 | -43.01037 | 147.46130 | 1024 ft | 100 kts | 183° |
| 2026-04-23 08:03 | -43.01710 | 147.46029 | 1021 ft | 98 kts | 184° |
| 2026-04-23 08:03 | -43.02394 | 147.45940 | 1021 ft | 99 kts | 184° |
| 2026-04-23 08:03 | -43.03090 | 147.45854 | 1023 ft | 100 kts | 184° |
| 2026-04-23 08:04 | -43.03779 | 147.45768 | 1020 ft | 100 kts | 184° |
| 2026-04-23 08:04 | -43.04473 | 147.45682 | 1019 ft | 99 kts | 184° |
| 2026-04-23 08:04 | -43.05160 | 147.45602 | 1017 ft | 100 kts | 184° |
| 2026-04-23 08:04 | -43.05845 | 147.45519 | 1018 ft | 98 kts | 184° |
| 2026-04-23 08:05 | -43.06535 | 147.45437 | 1018 ft | 100 kts | 184° |
| 2026-04-23 08:05 | -43.07226 | 147.45349 | 1018 ft | 99 kts | 183° |
| 2026-04-23 08:05 | -43.07910 | 147.45256 | 1016 ft | 99 kts | 184° |
| 2026-04-23 08:05 | -43.08596 | 147.45135 | 1018 ft | 100 kts | 195° |
| 2026-04-23 08:06 | -43.09163 | 147.44574 | 1023 ft | 102 kts | 224° |
| 2026-04-23 08:06 | -43.09641 | 147.43864 | 1020 ft | 101 kts | 225° |
| 2026-04-23 08:06 | -43.10172 | 147.43226 | 1021 ft | 102 kts | 217° |
| 2026-04-23 08:06 | -43.10725 | 147.42625 | 1019 ft | 101 kts | 216° |
| 2026-04-23 08:07 | -43.11268 | 147.42035 | 1020 ft | 101 kts | 217° |
| 2026-04-23 08:07 | -43.11825 | 147.41427 | 1019 ft | 100 kts | 216° |
| 2026-04-23 08:07 | -43.12360 | 147.40839 | 1019 ft | 101 kts | 216° |
| 2026-04-23 08:07 | -43.12906 | 147.40240 | 1019 ft | 100 kts | 216° |
| 2026-04-23 08:08 | -43.13451 | 147.39639 | 1020 ft | 101 kts | 217° |
| 2026-04-23 08:08 | -43.13997 | 147.39039 | 1020 ft | 99 kts | 217° |
| 2026-04-23 08:08 | -43.14539 | 147.38440 | 1020 ft | 100 kts | 218° |
| 2026-04-23 08:08 | -43.15084 | 147.37836 | 1019 ft | 101 kts | 218° |
| 2026-04-23 08:09 | -43.15630 | 147.37230 | 1020 ft | 101 kts | 217° |
| 2026-04-23 08:09 | -43.16176 | 147.36625 | 1018 ft | 101 kts | 217° |
| 2026-04-23 08:09 | -43.16726 | 147.36012 | 1022 ft | 101 kts | 216° |
| 2026-04-23 08:09 | -43.17261 | 147.35416 | 1019 ft | 100 kts | 216° |
| 2026-04-23 08:10 | -43.17804 | 147.34810 | 1022 ft | 101 kts | 217° |
| 2026-04-23 08:10 | -43.18350 | 147.34202 | 1021 ft | 101 kts | 218° |
| 2026-04-23 08:10 | -43.19438 | 147.32989 | 1020 ft | 101 kts | 217° |
| 2026-04-23 08:11 | -43.19983 | 147.32379 | 1021 ft | 101 kts | 218° |
| 2026-04-23 08:11 | -43.20529 | 147.31769 | 1021 ft | 101 kts | 217° |
| 2026-04-23 08:11 | -43.21074 | 147.31160 | 1019 ft | 102 kts | 218° |
| 2026-04-23 08:11 | -43.21625 | 147.30545 | 1020 ft | 102 kts | 217° |
| 2026-04-23 08:12 | -43.22174 | 147.29931 | 1019 ft | 102 kts | 217° |
| 2026-04-23 08:12 | -43.22721 | 147.29320 | 1019 ft | 102 kts | 217° |
| 2026-04-23 08:12 | -43.23271 | 147.28706 | 1022 ft | 102 kts | 217° |
| 2026-04-23 08:12 | -43.23811 | 147.28104 | 1019 ft | 101 kts | 218° |
| 2026-04-23 08:13 | -43.24362 | 147.27487 | 1022 ft | 102 kts | 218° |
| 2026-04-23 08:13 | -43.24912 | 147.26872 | 1020 ft | 102 kts | 218° |
| 2026-04-23 08:13 | -43.25463 | 147.26256 | 1021 ft | 102 kts | 216° |
| 2026-04-23 08:13 | -43.26012 | 147.25641 | 1020 ft | 102 kts | 217° |
| 2026-04-23 08:14 | -43.26554 | 147.25034 | 1019 ft | 101 kts | 217° |
| 2026-04-23 08:14 | -43.27100 | 147.24424 | 1019 ft | 101 kts | 217° |
| 2026-04-23 08:14 | -43.27724 | 147.23980 | 1019 ft | 102 kts | 199° |
| 2026-04-23 08:14 | -43.28390 | 147.23665 | 1020 ft | 101 kts | 197° |
| 2026-04-23 08:15 | -43.29059 | 147.23357 | 1019 ft | 102 kts | 197° |
| 2026-04-23 08:15 | -43.29733 | 147.23053 | 1020 ft | 102 kts | 197° |
| 2026-04-23 08:15 | -43.30405 | 147.22748 | 1020 ft | 101 kts | 196° |
| 2026-04-23 08:15 | -43.31086 | 147.22488 | 1020 ft | 102 kts | 193° |
| 2026-04-23 08:16 | -43.31768 | 147.22243 | 1020 ft | 101 kts | 193° |
| 2026-04-23 08:16 | -43.32447 | 147.21998 | 1020 ft | 101 kts | 193° |
| 2026-04-23 08:16 | -43.33119 | 147.21759 | 1019 ft | 101 kts | 193° |
| 2026-04-23 08:16 | -43.33804 | 147.21519 | 1021 ft | 101 kts | 193° |
| 2026-04-23 08:17 | -43.34489 | 147.21279 | 1021 ft | 101 kts | 193° |
| 2026-04-23 08:17 | -43.35176 | 147.21039 | 1021 ft | 103 kts | 193° |
| 2026-04-23 08:17 | -43.35869 | 147.20784 | 1022 ft | 103 kts | 198° |
| 2026-04-23 08:17 | -43.36393 | 147.20130 | 1022 ft | 105 kts | 242° |
| 2026-04-23 08:18 | -43.36452 | 147.19144 | 1022 ft | 106 kts | 286° |
| 2026-04-23 08:18 | -43.36014 | 147.18364 | 1023 ft | 105 kts | 329° |
| 2026-04-23 08:18 | -43.35335 | 147.18020 | 1023 ft | 104 kts | 346° |
| 2026-04-23 08:18 | -43.34645 | 147.17757 | 1022 ft | 104 kts | 346° |
| 2026-04-23 08:19 | -43.33945 | 147.17495 | 1023 ft | 104 kts | 346° |
| 2026-04-23 08:19 | -43.33244 | 147.17234 | 1022 ft | 104 kts | 346° |
| 2026-04-23 08:19 | -43.32777 | 147.17066 | 1022 ft | 105 kts | 346° |
| 2026-04-23 08:19 | -43.31831 | 147.16729 | 1021 ft | 105 kts | 346° |
| 2026-04-23 08:20 | -43.31360 | 147.16561 | 1020 ft | 106 kts | 346° |
| 2026-04-23 08:20 | -43.30650 | 147.16309 | 1020 ft | 105 kts | 346° |
| 2026-04-23 08:20 | -43.29712 | 147.15975 | 1020 ft | 105 kts | 346° |
| 2026-04-23 08:20 | -43.29038 | 147.15729 | 1031 ft | 91 kts | 346° |
| 2026-04-23 08:21 | -43.28500 | 147.15501 | 1025 ft | 72 kts | 338° |
| 2026-04-23 08:21 | -43.28255 | 147.14994 | 1020 ft | 66 kts | 271° |
| 2026-04-23 08:21 | -43.28361 | 147.14608 | 1021 ft | 66 kts | 227° |
| 2026-04-23 08:21 | -43.28765 | 147.14442 | 1022 ft | 63 kts | 166° |
| 2026-04-23 08:22 | -43.29190 | 147.14572 | 1022 ft | 62 kts | 166° |
| 2026-04-23 08:22 | -43.29605 | 147.14700 | 1020 ft | 61 kts | 166° |
| 2026-04-23 08:22 | -43.30022 | 147.14834 | 1020 ft | 62 kts | 166° |
| 2026-04-23 08:22 | -43.30441 | 147.14968 | 1020 ft | 62 kts | 166° |
| 2026-04-23 08:23 | -43.30858 | 147.15099 | 1022 ft | 61 kts | 166° |
| 2026-04-23 08:23 | -43.31264 | 147.15229 | 1020 ft | 61 kts | 166° |
| 2026-04-23 08:23 | -43.31676 | 147.15360 | 1020 ft | 61 kts | 166° |
| 2026-04-23 08:23 | -43.32089 | 147.15489 | 1020 ft | 61 kts | 166° |
| 2026-04-23 08:24 | -43.32503 | 147.15619 | 1020 ft | 61 kts | 166° |
| 2026-04-23 08:24 | -43.32916 | 147.15749 | 1020 ft | 61 kts | 165° |
| 2026-04-23 08:24 | -43.33340 | 147.15875 | 1022 ft | 63 kts | 166° |
| 2026-04-23 08:24 | -43.33768 | 147.15996 | 1022 ft | 63 kts | 166° |
| 2026-04-23 08:25 | -43.34195 | 147.16121 | 1023 ft | 63 kts | 166° |
| 2026-04-23 08:25 | -43.34624 | 147.16253 | 1023 ft | 63 kts | 166° |
| 2026-04-23 08:25 | -43.35047 | 147.16376 | 1023 ft | 63 kts | 166° |
| 2026-04-23 08:25 | -43.35473 | 147.16507 | 1023 ft | 63 kts | 166° |
| 2026-04-23 08:26 | -43.35902 | 147.16641 | 1022 ft | 63 kts | 166° |
| 2026-04-23 08:26 | -43.36329 | 147.16768 | 1023 ft | 63 kts | 166° |
| 2026-04-23 08:26 | -43.36758 | 147.16897 | 1023 ft | 63 kts | 166° |
| 2026-04-23 08:26 | -43.37189 | 147.16939 | 1021 ft | 64 kts | 197° |
| 2026-04-23 08:27 | -43.37450 | 147.16463 | 1023 ft | 67 kts | 263° |
| 2026-04-23 08:27 | -43.37252 | 147.15920 | 1023 ft | 66 kts | 329° |
| 2026-04-23 08:27 | -43.36824 | 147.15730 | 1024 ft | 65 kts | 347° |
| 2026-04-23 08:27 | -43.36384 | 147.15579 | 1023 ft | 65 kts | 348° |
| 2026-04-23 08:28 | -43.35942 | 147.15437 | 1022 ft | 65 kts | 349° |
| 2026-04-23 08:28 | -43.35501 | 147.15298 | 1022 ft | 65 kts | 348° |
| 2026-04-23 08:28 | -43.35060 | 147.15159 | 1023 ft | 65 kts | 349° |
| 2026-04-23 08:28 | -43.34618 | 147.15017 | 1023 ft | 65 kts | 348° |
| 2026-04-23 08:29 | -43.34182 | 147.14871 | 1023 ft | 65 kts | 348° |
| 2026-04-23 08:29 | -43.33739 | 147.14730 | 1023 ft | 65 kts | 349° |
| 2026-04-23 08:29 | -43.33297 | 147.14590 | 1023 ft | 65 kts | 349° |
| 2026-04-23 08:29 | -43.32858 | 147.14451 | 1022 ft | 65 kts | 349° |
| 2026-04-23 08:30 | -43.32417 | 147.14312 | 1022 ft | 65 kts | 349° |
| 2026-04-23 08:30 | -43.31970 | 147.14173 | 1022 ft | 66 kts | 348° |
| 2026-04-23 08:30 | -43.31519 | 147.14038 | 1020 ft | 66 kts | 349° |
| 2026-04-23 08:30 | -43.31070 | 147.13904 | 1020 ft | 66 kts | 349° |
| 2026-04-23 08:31 | -43.30665 | 147.14086 | 1019 ft | 64 kts | 53° |
| 2026-04-23 08:31 | -43.30544 | 147.14657 | 1021 ft | 62 kts | 83° |
| 2026-04-23 08:31 | -43.30472 | 147.15244 | 1020 ft | 62 kts | 83° |
| 2026-04-23 08:31 | -43.30401 | 147.15828 | 1019 ft | 62 kts | 82° |
| 2026-04-23 08:32 | -43.30333 | 147.16419 | 1021 ft | 62 kts | 83° |
| 2026-04-23 08:32 | -43.30266 | 147.17009 | 1021 ft | 63 kts | 83° |
| 2026-04-23 08:32 | -43.30200 | 147.17592 | 1020 ft | 63 kts | 82° |
| 2026-04-23 08:32 | -43.30132 | 147.18181 | 1021 ft | 62 kts | 82° |
| 2026-04-23 08:33 | -43.30065 | 147.18770 | 1020 ft | 62 kts | 83° |
| 2026-04-23 08:33 | -43.29995 | 147.19355 | 1019 ft | 62 kts | 83° |
| 2026-04-23 08:33 | -43.29926 | 147.19942 | 1020 ft | 62 kts | 83° |
| 2026-04-23 08:33 | -43.29858 | 147.20533 | 1020 ft | 62 kts | 82° |
| 2026-04-23 08:34 | -43.29792 | 147.21123 | 1021 ft | 63 kts | 83° |
| 2026-04-23 08:34 | -43.29715 | 147.21716 | 1020 ft | 63 kts | 70° |
| 2026-04-23 08:34 | -43.29415 | 147.22151 | 1021 ft | 64 kts | 41° |
| 2026-04-23 08:34 | -43.29067 | 147.22535 | 1020 ft | 64 kts | 41° |
| 2026-04-23 08:35 | -43.28716 | 147.22920 | 1019 ft | 64 kts | 43° |
| 2026-04-23 08:35 | -43.28375 | 147.23319 | 1020 ft | 64 kts | 42° |
| 2026-04-23 08:35 | -43.28038 | 147.23721 | 1019 ft | 64 kts | 43° |
| 2026-04-23 08:35 | -43.27699 | 147.24119 | 1021 ft | 64 kts | 43° |
| 2026-04-23 08:36 | -43.27362 | 147.24512 | 1021 ft | 64 kts | 42° |
| 2026-04-23 08:36 | -43.27024 | 147.24910 | 1020 ft | 64 kts | 44° |
| 2026-04-23 08:36 | -43.26681 | 147.25314 | 1021 ft | 65 kts | 44° |
| 2026-04-23 08:36 | -43.26338 | 147.25716 | 1020 ft | 65 kts | 43° |
| 2026-04-23 08:37 | -43.25994 | 147.26116 | 1021 ft | 65 kts | 43° |
| 2026-04-23 08:37 | -43.25646 | 147.26511 | 1021 ft | 65 kts | 42° |
| 2026-04-23 08:37 | -43.25306 | 147.26905 | 1020 ft | 65 kts | 42° |
| 2026-04-23 08:37 | -43.24952 | 147.27326 | 1007 ft | 78 kts | 43° |
| 2026-04-23 08:38 | -43.24496 | 147.27896 | 1021 ft | 91 kts | 43° |
| 2026-04-23 08:38 | -43.24037 | 147.28469 | 1019 ft | 88 kts | 44° |
| 2026-04-23 08:38 | -43.23572 | 147.29031 | 1020 ft | 89 kts | 44° |
| 2026-04-23 08:38 | -43.23107 | 147.29594 | 1020 ft | 89 kts | 43° |
| 2026-04-23 08:39 | -43.22643 | 147.30153 | 1021 ft | 89 kts | 43° |
| 2026-04-23 08:39 | -43.22183 | 147.30703 | 1021 ft | 89 kts | 43° |
| 2026-04-23 08:39 | -43.21715 | 147.31253 | 1020 ft | 89 kts | 42° |
| 2026-04-23 08:39 | -43.21239 | 147.31791 | 1020 ft | 89 kts | 40° |
| 2026-04-23 08:40 | -43.20759 | 147.32330 | 1020 ft | 89 kts | 41° |
| 2026-04-23 08:40 | -43.20270 | 147.32871 | 1020 ft | 90 kts | 41° |
| 2026-04-23 08:40 | -43.19783 | 147.33413 | 1019 ft | 90 kts | 42° |
| 2026-04-23 08:40 | -43.19299 | 147.33954 | 1020 ft | 89 kts | 41° |
| 2026-04-23 08:41 | -43.18815 | 147.34496 | 1022 ft | 90 kts | 41° |
| 2026-04-23 08:41 | -43.18335 | 147.35031 | 1022 ft | 90 kts | 41° |
| 2026-04-23 08:41 | -43.17852 | 147.35571 | 1020 ft | 89 kts | 41° |
| 2026-04-23 08:41 | -43.17372 | 147.36113 | 1020 ft | 90 kts | 41° |
| 2026-04-23 08:42 | -43.16887 | 147.36651 | 1020 ft | 90 kts | 41° |
| 2026-04-23 08:42 | -43.16400 | 147.37188 | 1020 ft | 90 kts | 40° |
| 2026-04-23 08:42 | -43.15917 | 147.37727 | 1020 ft | 90 kts | 40° |
| 2026-04-23 08:42 | -43.15437 | 147.38270 | 1021 ft | 89 kts | 41° |
| 2026-04-23 08:43 | -43.14954 | 147.38812 | 1019 ft | 90 kts | 42° |
| 2026-04-23 08:43 | -43.14464 | 147.39353 | 1018 ft | 91 kts | 40° |
| 2026-04-23 08:43 | -43.13974 | 147.39897 | 1018 ft | 90 kts | 41° |
| 2026-04-23 08:43 | -43.13491 | 147.40438 | 1018 ft | 90 kts | 41° |
| 2026-04-23 08:44 | -43.13012 | 147.40972 | 1017 ft | 90 kts | 41° |
| 2026-04-23 08:44 | -43.12525 | 147.41515 | 1018 ft | 90 kts | 41° |
| 2026-04-23 08:44 | -43.12041 | 147.42058 | 1017 ft | 90 kts | 40° |
| 2026-04-23 08:44 | -43.11555 | 147.42602 | 1021 ft | 90 kts | 41° |
| 2026-04-23 08:45 | -43.11071 | 147.43146 | 1017 ft | 90 kts | 41° |
| 2026-04-23 08:45 | -43.10584 | 147.43691 | 1018 ft | 90 kts | 41° |
| 2026-04-23 08:45 | -43.10101 | 147.44236 | 1018 ft | 90 kts | 40° |
| 2026-04-23 08:45 | -43.09625 | 147.44774 | 1017 ft | 90 kts | 40° |
| 2026-04-23 08:46 | -43.09142 | 147.45319 | 1019 ft | 90 kts | 41° |
| 2026-04-23 08:46 | -43.08657 | 147.45864 | 1018 ft | 90 kts | 41° |
| 2026-04-23 08:46 | -43.08136 | 147.46463 | 998 ft | 112 kts | 42° |
| 2026-04-23 08:46 | -43.07533 | 147.47184 | 1017 ft | 114 kts | 42° |
| 2026-04-23 08:47 | -43.06930 | 147.47891 | 1012 ft | 114 kts | 41° |
| 2026-04-23 08:47 | -43.06324 | 147.48598 | 1014 ft | 114 kts | 41° |
| 2026-04-23 08:47 | -43.05724 | 147.49296 | 1013 ft | 115 kts | 41° |
| 2026-04-23 08:47 | -43.05112 | 147.50001 | 1015 ft | 115 kts | 41° |
| 2026-04-23 08:48 | -43.04505 | 147.50701 | 1016 ft | 114 kts | 41° |
| 2026-04-23 08:48 | -43.03900 | 147.51402 | 1015 ft | 114 kts | 41° |
| 2026-04-23 08:48 | -43.03289 | 147.52106 | 1014 ft | 115 kts | 41° |
| 2026-04-23 08:48 | -43.02678 | 147.52810 | 1015 ft | 114 kts | 41° |
| 2026-04-23 08:49 | -43.02080 | 147.53500 | 1011 ft | 114 kts | 41° |
| 2026-04-23 08:49 | -43.01475 | 147.54197 | 1011 ft | 114 kts | 41° |
| 2026-04-23 08:49 | -43.00866 | 147.54898 | 1012 ft | 114 kts | 41° |
| 2026-04-23 08:49 | -43.00258 | 147.55600 | 1012 ft | 114 kts | 41° |
| 2026-04-23 08:50 | -42.99654 | 147.56298 | 1013 ft | 114 kts | 41° |
| 2026-04-23 08:50 | -42.99055 | 147.56987 | 1012 ft | 114 kts | 41° |
| 2026-04-23 08:50 | -42.98366 | 147.57501 | 1012 ft | 115 kts | 13° |
| 2026-04-23 08:50 | -42.97584 | 147.57384 | 1012 ft | 115 kts | 340° |
| 2026-04-23 08:51 | -42.96847 | 147.56962 | 1011 ft | 115 kts | 335° |
| 2026-04-23 08:51 | -42.96113 | 147.56515 | 1013 ft | 115 kts | 335° |
| 2026-04-23 08:51 | -42.95384 | 147.56068 | 1017 ft | 114 kts | 335° |
| 2026-04-23 08:51 | -42.94659 | 147.55619 | 1011 ft | 115 kts | 335° |
| 2026-04-23 08:52 | -42.93934 | 147.55173 | 1013 ft | 114 kts | 335° |
| 2026-04-23 08:52 | -42.93217 | 147.54735 | 1013 ft | 114 kts | 335° |
| 2026-04-23 08:52 | -42.92493 | 147.54289 | 1014 ft | 114 kts | 335° |
| 2026-04-23 08:52 | -42.91770 | 147.53844 | 1014 ft | 114 kts | 335° |
| 2026-04-23 08:53 | -42.91045 | 147.53398 | 1015 ft | 114 kts | 335° |
| 2026-04-23 08:53 | -42.90322 | 147.52954 | 1015 ft | 114 kts | 335° |
| 2026-04-23 08:53 | -42.89600 | 147.52507 | 1015 ft | 114 kts | 334° |
| 2026-04-23 08:53 | -42.88893 | 147.52023 | 996 ft | 114 kts | 332° |
| 2026-04-23 08:54 | -42.88185 | 147.51532 | 996 ft | 114 kts | 332° |
| 2026-04-23 08:54 | -42.87478 | 147.51040 | 996 ft | 114 kts | 332° |
| 2026-04-23 08:54 | -42.86775 | 147.50546 | 995 ft | 113 kts | 332° |
| 2026-04-23 08:54 | -42.86072 | 147.50048 | 995 ft | 114 kts | 332° |
| 2026-04-23 08:55 | -42.85370 | 147.49551 | 1022 ft | 114 kts | 333° |
| 2026-04-23 08:55 | -42.84679 | 147.49059 | 1251 ft | 106 kts | 332° |
| 2026-04-23 08:55 | -42.84112 | 147.48627 | 1177 ft | 83 kts | 331° |
| 2026-04-23 08:55 | -42.83679 | 147.48274 | 1130 ft | 64 kts | 331° |
| 2026-04-23 08:56 | -42.83297 | 147.47981 | 1106 ft | 64 kts | 341° |
| 2026-04-23 08:56 | -42.82876 | 147.48095 | 1103 ft | 64 kts | 36° |
| 2026-04-23 08:56 | -42.82547 | 147.48502 | 1100 ft | 64 kts | 47° |
| 2026-04-23 08:56 | -42.82230 | 147.48928 | 1095 ft | 65 kts | 30° |
| 2026-04-23 08:57 | -42.81801 | 147.48894 | 1099 ft | 66 kts | 326° |
| 2026-04-23 08:57 | -42.81451 | 147.48466 | 1100 ft | 68 kts | 316° |
| 2026-04-23 08:57 | -42.81103 | 147.48039 | 1094 ft | 67 kts | 316° |
| 2026-04-23 08:57 | -42.80748 | 147.47610 | 1099 ft | 69 kts | 316° |
| 2026-04-23 08:58 | -42.80525 | 147.47080 | 1096 ft | 65 kts | 268° |
| 2026-04-23 08:58 | -42.80726 | 147.46573 | 930 ft | 61 kts | 221° |
| 2026-04-23 08:58 | -42.80993 | 147.46224 | 729 ft | 49 kts | 210° |
| 2026-04-23 08:58 | -42.81308 | 147.46216 | 629 ft | 49 kts | 153° |
| 2026-04-23 08:59 | -42.81559 | 147.46552 | 581 ft | 51 kts | 141° |
| 2026-04-23 08:59 | -42.81824 | 147.46869 | 566 ft | 51 kts | 139° |
| 2026-04-23 08:59 | -42.82080 | 147.47194 | 555 ft | 50 kts | 142° |
| 2026-04-23 08:59 | -42.82330 | 147.47522 | 550 ft | 50 kts | 141° |
| 2026-04-23 09:00 | -42.82590 | 147.47841 | 548 ft | 50 kts | 141° |
| 2026-04-23 09:00 | -42.82845 | 147.48166 | 545 ft | 51 kts | 141° |
| 2026-04-23 09:00 | -42.83107 | 147.48488 | 545 ft | 51 kts | 142° |
| 2026-04-23 09:00 | -42.83343 | 147.48842 | 549 ft | 53 kts | 117° |
| 2026-04-23 09:01 | -42.83300 | 147.49335 | 548 ft | 56 kts | 59° |
| 2026-04-23 09:01 | -42.83010 | 147.49696 | 548 ft | 58 kts | 22° |
| 2026-04-23 09:01 | -42.82625 | 147.49651 | 544 ft | 57 kts | 326° |
| 2026-04-23 09:01 | -42.82314 | 147.49326 | 544 ft | 56 kts | 317° |
| 2026-04-23 09:02 | -42.82019 | 147.48978 | 545 ft | 56 kts | 314° |
| 2026-04-23 09:02 | -42.81735 | 147.48611 | 543 ft | 57 kts | 313° |
| 2026-04-23 09:02 | -42.81447 | 147.48244 | 545 ft | 56 kts | 314° |
| 2026-04-23 09:02 | -42.81163 | 147.47889 | 547 ft | 56 kts | 314° |
| 2026-04-23 09:03 | -42.80871 | 147.47530 | 545 ft | 56 kts | 313° |
| 2026-04-23 09:03 | -42.80583 | 147.47173 | 543 ft | 56 kts | 314° |
| 2026-04-23 09:03 | -42.80342 | 147.46766 | 545 ft | 54 kts | 281° |
| 2026-04-23 09:03 | -42.80414 | 147.46304 | 547 ft | 50 kts | 227° |
| 2026-04-23 09:04 | -42.80653 | 147.45960 | 413 ft | 49 kts | 222° |
| 2026-04-23 09:04 | -42.80947 | 147.45765 | 354 ft | 49 kts | 176° |
| 2026-04-23 09:04 | -42.81238 | 147.45997 | 324 ft | 51 kts | 138° |
| 2026-04-23 09:04 | -42.81485 | 147.46342 | 309 ft | 50 kts | 140° |
| 2026-04-23 09:05 | -42.81735 | 147.46674 | 304 ft | 50 kts | 139° |
| 2026-04-23 09:05 | -42.81993 | 147.47003 | 300 ft | 51 kts | 140° |
| 2026-04-23 09:05 | -42.82244 | 147.47342 | 297 ft | 51 kts | 139° |
| 2026-04-23 09:05 | -42.82494 | 147.47680 | 298 ft | 50 kts | 140° |
| 2026-04-23 09:06 | -42.82751 | 147.48004 | 296 ft | 50 kts | 140° |
| 2026-04-23 09:06 | -42.82995 | 147.48356 | 304 ft | 53 kts | 120° |
| 2026-04-23 09:06 | -42.82978 | 147.48850 | 311 ft | 56 kts | 63° |
| 2026-04-23 09:06 | -42.82658 | 147.49127 | 314 ft | 57 kts | 5° |
| 2026-04-23 09:07 | -42.82305 | 147.48954 | 318 ft | 55 kts | 318° |
| 2026-04-23 09:07 | -42.82018 | 147.48605 | 319 ft | 56 kts | 313° |
| 2026-04-23 09:07 | -42.81737 | 147.48239 | 318 ft | 56 kts | 313° |
| 2026-04-23 09:07 | -42.81458 | 147.47867 | 320 ft | 56 kts | 313° |
| 2026-04-23 09:08 | -42.81284 | 147.47427 | 319 ft | 53 kts | 266° |
| 2026-04-23 09:08 | -42.81444 | 147.47028 | 317 ft | 49 kts | 208° |
| 2026-04-23 09:08 | -42.81770 | 147.47027 | 319 ft | 50 kts | 151° |
| 2026-04-23 09:08 | -42.81958 | 147.47205 | 322 ft | 50 kts | 154° |
| 2026-04-23 09:09 | -42.82268 | 147.47429 | 318 ft | 51 kts | 144° |
| 2026-04-23 09:09 | -42.82519 | 147.47763 | 436 ft | 52 kts | 139° |
| 2026-04-23 09:09 | -42.82779 | 147.48100 | 450 ft | 51 kts | 139° |
| 2026-04-23 09:09 | -42.83018 | 147.48431 | 323 ft | 44 kts | 132° |
| 2026-04-23 09:10 | -42.83071 | 147.48787 | 264 ft | 36 kts | 82° |
| 2026-04-23 09:10 | -42.82752 | 147.49293 | 235 ft | 38 kts | 12° |
| 2026-04-23 09:10 | -42.82495 | 147.49358 | 227 ft | 38 kts | 337° |
| 2026-04-23 09:11 | -42.82222 | 147.49253 | 220 ft | 51 kts | 319° |
| 2026-04-23 09:11 | -42.81927 | 147.48963 | 224 ft | 51 kts | 303° |
| 2026-04-23 09:11 | -42.81690 | 147.48602 | 222 ft | 51 kts | 302° |
| 2026-04-23 09:11 | -42.81481 | 147.48224 | 220 ft | 50 kts | 302° |
| 2026-04-23 09:12 | -42.81361 | 147.47801 | 220 ft | 48 kts | 262° |
| 2026-04-23 09:12 | -42.81510 | 147.47427 | 220 ft | 46 kts | 225° |
| 2026-04-23 09:12 | -42.81771 | 147.47170 | 220 ft | 48 kts | 204° |
| 2026-04-23 09:12 | -42.82100 | 147.47225 | 220 ft | 51 kts | 152° |
| 2026-04-23 09:13 | -42.82356 | 147.47555 | 220 ft | 52 kts | 140° |
| 2026-04-23 09:13 | -42.82618 | 147.47891 | 220 ft | 52 kts | 140° |
| 2026-04-23 09:13 | -42.82883 | 147.48219 | 220 ft | 51 kts | 141° |
| 2026-04-23 09:13 | -42.83146 | 147.48545 | 220 ft | 51 kts | 141° |
| 2026-04-23 09:14 | -42.83407 | 147.48873 | 219 ft | 51 kts | 137° |
| 2026-04-23 09:14 | -42.83516 | 147.49328 | 220 ft | 52 kts | 83° |
| 2026-04-23 09:14 | -42.83341 | 147.49736 | 220 ft | 50 kts | 31° |
| 2026-04-23 09:14 | -42.83019 | 147.49812 | 220 ft | 47 kts | 339° |
| 2026-04-23 09:15 | -42.82798 | 147.49524 | 220 ft | 45 kts | 287° |
| 2026-04-23 09:15 | -42.82747 | 147.49109 | 220 ft | 45 kts | 287° |
| 2026-04-23 09:15 | -42.82646 | 147.48709 | 220 ft | 45 kts | 288° |
| 2026-04-23 09:15 | -42.82544 | 147.48310 | 220 ft | 45 kts | 288° |
| 2026-04-23 09:16 | -42.82440 | 147.47912 | 407 ft | 45 kts | 287° |
| 2026-04-23 09:16 | -42.82316 | 147.47511 | 652 ft | 47 kts | 290° |
| 2026-04-23 09:16 | -42.82184 | 147.47085 | 878 ft | 50 kts | 289° |
| 2026-04-23 09:16 | -42.82047 | 147.46648 | 999 ft | 52 kts | 290° |
| 2026-04-23 09:17 | -42.81912 | 147.46166 | 1187 ft | 59 kts | 282° |
| 2026-04-23 09:17 | -42.81864 | 147.45534 | 1253 ft | 74 kts | 245° |
| 2026-04-23 09:17 | -42.81988 | 147.44892 | 1367 ft | 62 kts | 226° |
| 2026-04-23 09:17 | -42.82224 | 147.44294 | 1347 ft | 82 kts | 199° |
| 2026-04-23 09:18 | -42.82797 | 147.44020 | 1249 ft | 95 kts | 159° |
| 2026-04-23 09:18 | -42.83261 | 147.44542 | 1161 ft | 98 kts | 104° |
| 2026-04-23 09:18 | -42.83540 | 147.45488 | 853 ft | 118 kts | 99° |
| 2026-04-23 09:18 | -42.83783 | 147.46616 | 620 ft | 127 kts | 96° |
| 2026-04-23 09:19 | -42.83910 | 147.47787 | 479 ft | 121 kts | 84° |
| 2026-04-23 09:19 | -42.83708 | 147.48826 | 403 ft | 107 kts | 29° |
| 2026-04-23 09:19 | -42.83149 | 147.48979 | 427 ft | 74 kts | 295° |
| 2026-04-23 09:19 | -42.82931 | 147.48387 | 172 ft | 74 kts | 259° |
| 2026-04-23 09:20 | -42.82841 | 147.47721 | 64 ft | 65 kts | 283° |
| 2026-04-23 09:20 | -42.82678 | 147.47314 | 169 ft | 36 kts | 13° |
| 2026-04-23 09:20 | -42.82301 | 147.47408 | 82 ft | 68 kts | 8° |
| 2026-04-23 09:20 | -42.81872 | 147.47598 | 190 ft | 52 kts | 83° |
| 2026-04-23 09:21 | -42.81813 | 147.47874 | 342 ft | 22 kts | 181° |
| 2026-04-23 09:21 | -42.81874 | 147.47957 | 501 ft | 19 kts | 191° |
| 2026-04-23 09:21 | -42.82116 | 147.47847 | 508 ft | 45 kts | 178° |
| 2026-04-23 09:21 | -42.82422 | 147.47721 | 191 ft | 49 kts | 166° |
| 2026-04-23 09:22 | -42.82720 | 147.47731 | 85 ft | 31 kts | 160° |
| 2026-04-23 09:22 | -42.82795 | 147.47748 | 39 ft | 2 kts | 156° |
| 2026-04-23 09:22 | -42.82797 | 147.47748 | 37 ft | 0 kts | 135° |
| 2026-04-23 09:27 | -42.82814 | 147.47741 | 46 ft | 7 kts | 187° |
| 2026-04-23 09:27 | -42.82870 | 147.47709 | 51 ft | 9 kts | 187° |
| 2026-04-23 09:27 | -42.82918 | 147.47675 | 43 ft | 9 kts | 246° |
| 2026-04-23 09:27 | -42.82926 | 147.47592 | 43 ft | 10 kts | 303° |
| 2026-04-23 09:28 | -42.82886 | 147.47563 | 40 ft | 6 kts | 68° |
| 2026-04-23 09:28 | -42.82885 | 147.47609 | 41 ft | 8 kts | 101° |
| 2026-04-23 09:28 | -42.82908 | 147.47692 | 43 ft | 11 kts | 101° |
| 2026-04-23 09:28 | -42.82968 | 147.47757 | 52 ft | 12 kts | 175° |
| 2026-04-23 09:29 | -42.83098 | 147.47740 | 95 ft | 34 kts | 183° |
| 2026-04-23 09:29 | -42.83395 | 147.47697 | 174 ft | 44 kts | 193° |
| 2026-04-23 09:29 | -42.83689 | 147.47640 | 246 ft | 41 kts | 195° |
| 2026-04-23 09:29 | -42.83958 | 147.47570 | 277 ft | 40 kts | 207° |
| 2026-04-23 09:30 | -42.84162 | 147.47260 | 275 ft | 47 kts | 254° |
| 2026-04-23 09:30 | -42.84088 | 147.46854 | 273 ft | 46 kts | 310° |
| 2026-04-23 09:30 | -42.83784 | 147.46718 | 271 ft | 49 kts | 3° |
| 2026-04-23 09:30 | -42.83453 | 147.46797 | 273 ft | 49 kts | 6° |
| 2026-04-23 09:31 | -42.83119 | 147.46885 | 271 ft | 49 kts | 7° |
| 2026-04-23 09:31 | -42.82812 | 147.46964 | 271 ft | 49 kts | 6° |
| 2026-04-23 09:31 | -42.82473 | 147.47058 | 271 ft | 50 kts | 7° |
| 2026-04-23 09:31 | -42.82139 | 147.47150 | 270 ft | 50 kts | 6° |
| 2026-04-23 09:32 | -42.81802 | 147.47243 | 270 ft | 49 kts | 7° |
| 2026-04-23 09:32 | -42.81468 | 147.47331 | 271 ft | 49 kts | 6° |
| 2026-04-23 09:32 | -42.81158 | 147.47523 | 269 ft | 52 kts | 45° |
| 2026-04-23 09:32 | -42.81058 | 147.47985 | 269 ft | 53 kts | 99° |
| 2026-04-23 09:33 | -42.81253 | 147.48389 | 271 ft | 52 kts | 153° |
| 2026-04-23 09:33 | -42.81588 | 147.48456 | 270 ft | 48 kts | 192° |
| 2026-04-23 09:33 | -42.81921 | 147.48398 | 270 ft | 49 kts | 192° |
| 2026-04-23 09:33 | -42.82254 | 147.48337 | 269 ft | 49 kts | 192° |
| 2026-04-23 09:34 | -42.82589 | 147.48274 | 269 ft | 48 kts | 193° |
| 2026-04-23 09:34 | -42.82922 | 147.48206 | 270 ft | 49 kts | 193° |
| 2026-04-23 09:34 | -42.83255 | 147.48137 | 270 ft | 48 kts | 193° |
| 2026-04-23 09:34 | -42.83591 | 147.48137 | 269 ft | 50 kts | 162° |
| 2026-04-23 09:35 | -42.83829 | 147.48480 | 270 ft | 52 kts | 110° |
| 2026-04-23 09:35 | -42.83790 | 147.48957 | 270 ft | 52 kts | 56° |
| 2026-04-23 09:35 | -42.83510 | 147.49227 | 290 ft | 50 kts | 15° |
| 2026-04-23 09:35 | -42.83175 | 147.49250 | 276 ft | 48 kts | 315° |
| 2026-04-23 09:36 | -42.82992 | 147.48949 | 259 ft | 46 kts | 278° |
| 2026-04-23 09:36 | -42.82929 | 147.48480 | 132 ft | 53 kts | 261° |
| 2026-04-23 09:36 | -42.82907 | 147.48060 | 51 ft | 38 kts | 288° |
| 2026-04-23 09:36 | -42.82839 | 147.47727 | 63 ft | 33 kts | 285° |
| 2026-04-23 09:37 | -42.82782 | 147.47441 | 104 ft | 31 kts | 281° |
| 2026-04-23 09:37 | -42.82719 | 147.47061 | 250 ft | 45 kts | 238° |
| 2026-04-23 09:37 | -42.82822 | 147.46680 | 463 ft | 45 kts | 206° |
| 2026-04-23 09:37 | -42.83083 | 147.46422 | 536 ft | 52 kts | 193° |
| 2026-04-23 09:38 | -42.83395 | 147.46490 | 587 ft | 49 kts | 110° |
| 2026-04-23 09:38 | -42.83411 | 147.46959 | 510 ft | 46 kts | 84° |
| 2026-04-23 09:38 | -42.83331 | 147.47311 | 527 ft | 37 kts | 84° |
| 2026-04-23 09:38 | -42.83381 | 147.47725 | 525 ft | 51 kts | 92° |
| 2026-04-23 09:39 | -42.83520 | 147.48223 | 527 ft | 60 kts | 94° |
| 2026-04-23 09:39 | -42.83679 | 147.48808 | 381 ft | 70 kts | 99° |
| 2026-04-23 09:39 | -42.83857 | 147.49415 | 88 ft | 64 kts | 104° |
| 2026-04-23 09:39 | -42.83988 | 147.49768 | 21 ft | 17 kts | 121° |
| 2026-04-23 09:40 | -42.84003 | 147.49795 | 18 ft | 0 kts | 119° |
| 2026-04-23 09:42 | -42.84010 | 147.49806 | 28 ft | 4 kts | 84° |
| 2026-04-23 09:43 | -42.83997 | 147.49828 | 36 ft | 6 kts | 321° |
| 2026-04-23 09:43 | -42.83963 | 147.49713 | 104 ft | 18 kts | 313° |
| 2026-04-23 09:43 | -42.83818 | 147.49544 | 231 ft | 35 kts | 323° |
| 2026-04-23 09:43 | -42.83521 | 147.49340 | 327 ft | 60 kts | 331° |
| 2026-04-23 09:44 | -42.83110 | 147.49034 | 226 ft | 73 kts | 301° |
| 2026-04-23 09:44 | -42.82735 | 147.48516 | 114 ft | 77 kts | 276° |
| 2026-04-23 09:44 | -42.82461 | 147.47828 | 50 ft | 85 kts | 304° |
| 2026-04-23 09:44 | -42.82156 | 147.47152 | 51 ft | 81 kts | 316° |
| 2026-04-23 09:45 | -42.81774 | 147.46614 | 59 ft | 78 kts | 322° |
| 2026-04-23 09:45 | -42.81427 | 147.46078 | 53 ft | 66 kts | 274° |
| 2026-04-23 09:45 | -42.81333 | 147.45460 | 36 ft | 65 kts | 280° |
| 2026-04-23 09:45 | -42.81304 | 147.45257 | 37 ft | 0 kts | 309° |